Aurora, Iowa
Current Conditions -  °F | °C
As of 10:15 PM on Sunday 25 Jan 2015 (Local Time) from KOLZ Reporting Station
Overcast Overcast  
Wind Chill: -7°   Ceiling: 2400
Heat Index: -4°   Visibility: 10mi
Dew Point: -7°   Wind: 5mph
Humidity: 80%   Direction: 140°SE
Pressure: 30.03"   Gusts: NA
Location:  42.62°N, 91.73°W
Report Text: KOLZ 260415Z AUTO 14004KT 10SM OVC024 M04/M07 A3003 RMK AO2
Loading
Personal Weather Stations






























Interactive Weather Map New forecast layout! Learn more

10-Day Weather Forecast

Advertisements
Track Severe Weather on mobile